Terminal Aerodrome Forecast
Issued by NWS Riverton, WY

Home | Current Version | Previous Version | Text Only | Print | Product List | Glossary On
Versions: 1 2 3 4 5 6 7 8 9 10 11 12 13 14 15
209
FTUS45 KRIW 211131
TAFRIW
TAF
KRIW 211131Z 2112/2212 30006KT 1/2SM FZFG VV002
     FM211600 VRB05KT 2SM BR SCT003 BKN200
     FM211900 VRB05KT P6SM BKN080
     FM220200 29007KT P6SM SCT090 BKN150=

USA.gov is the U.S. government's official web portal to all federal, state and local government web resources and services.